createdAt,value
2019-04-04T00:00:25.185Z,21.83
2019-04-04T00:05:27.051Z,22.00
2019-04-04T00:10:28.980Z,22.73
2019-04-04T00:15:30.813Z,23.67
2019-04-04T00:20:32.857Z,23.93
2019-04-04T00:25:36.301Z,24.10
2019-04-04T00:30:38.296Z,24.77
2019-04-04T00:35:40.333Z,26.53
2019-04-04T00:40:42.524Z,27.00
2019-04-04T00:45:44.490Z,26.63
2019-04-04T00:50:46.325Z,25.23
2019-04-04T00:55:48.205Z,24.17
2019-04-04T01:00:50.110Z,24.90
2019-04-04T01:05:52.255Z,23.03
2019-04-04T01:10:54.113Z,22.70
2019-04-04T01:15:55.917Z,23.37
2019-04-04T01:20:57.840Z,28.07
2019-04-04T01:26:01.341Z,29.97
2019-04-04T01:31:03.940Z,29.70
2019-04-04T01:36:05.795Z,30.40
2019-04-04T01:41:07.635Z,25.70
2019-04-04T01:46:09.570Z,20.37
2019-04-04T01:51:11.404Z,15.70
2019-04-04T01:56:14.368Z,14.33
2019-04-04T02:01:17.035Z,14.17
2019-04-04T02:06:19.005Z,15.30
2019-04-04T02:11:20.929Z,18.13
2019-04-04T02:16:23.768Z,19.27
2019-04-04T02:21:28.472Z,20.20
2019-04-04T02:26:29.316Z,21.17
2019-04-04T02:31:35.029Z,20.73
2019-04-04T02:36:36.836Z,19.93
2019-04-04T02:41:38.751Z,21.00
2019-04-04T02:46:44.461Z,21.37
2019-04-04T02:51:44.620Z,20.93
2019-04-04T02:56:46.561Z,21.07
2019-04-04T03:01:48.634Z,19.37
2019-04-04T03:06:50.551Z,17.07
2019-04-04T03:11:54.111Z,17.90
2019-04-04T03:16:57.732Z,17.37
2019-04-04T03:22:00.934Z,18.20
2019-04-04T03:27:02.883Z,17.70
2019-04-04T03:32:04.706Z,17.57
2019-04-04T03:37:08.956Z,16.60
2019-04-04T03:42:10.276Z,17.00
2019-04-04T03:47:12.168Z,18.53
2019-04-04T03:52:14.087Z,17.60
2019-04-04T03:57:16.190Z,17.07
2019-04-04T04:02:18.741Z,17.87
2019-04-04T04:07:21.942Z,18.43
2019-04-04T04:12:23.785Z,17.53
2019-04-04T04:17:25.598Z,16.57
2019-04-04T04:22:27.403Z,15.80
2019-04-04T04:27:29.262Z,14.37
2019-04-04T04:32:31.161Z,14.90
2019-04-04T04:37:32.978Z,14.27
2019-04-04T04:42:34.809Z,12.67
2019-04-04T04:47:36.622Z,12.43
2019-04-04T04:52:38.494Z,13.30
2019-04-04T04:57:40.378Z,13.50
2019-04-04T05:02:42.309Z,12.00
2019-04-04T05:07:44.115Z,12.43
2019-04-04T05:12:45.950Z,11.23
2019-04-04T05:17:47.758Z,11.20
2019-04-04T05:22:50.588Z,11.63
2019-04-04T05:27:52.421Z,10.27
2019-04-04T05:32:56.392Z,11.83
2019-04-04T05:37:58.170Z,11.90
2019-04-04T05:43:00.115Z,11.83
2019-04-04T05:48:01.950Z,12.63
2019-04-04T05:53:04.841Z,12.80
2019-04-04T05:58:06.829Z,11.53
2019-04-04T06:03:08.660Z,11.80
2019-04-04T06:08:10.490Z,10.73
2019-04-04T06:13:12.304Z,10.97
2019-04-04T06:18:14.121Z,11.70
2019-04-04T06:23:15.972Z,11.13
2019-04-04T06:28:17.799Z,10.77
2019-04-04T06:33:19.663Z,10.63
2019-04-04T06:38:23.503Z,10.43
2019-04-04T06:43:25.192Z,10.43
2019-04-04T06:48:29.007Z,10.17
2019-04-04T06:53:30.780Z,12.07
2019-04-04T06:58:32.629Z,12.40
2019-04-04T07:03:34.484Z,12.87
2019-04-04T07:08:36.302Z,13.57
2019-04-04T07:13:42.741Z,13.70
2019-04-04T07:18:42.990Z,15.13
2019-04-04T07:23:45.588Z,15.20
2019-04-04T07:28:49.641Z,13.23
2019-04-04T07:33:51.202Z,14.70
2019-04-04T07:38:54.227Z,14.40
2019-04-04T07:43:58.520Z,15.00
2019-04-04T07:48:59.896Z,14.63
2019-04-04T07:54:01.963Z,15.83
2019-04-04T07:59:05.488Z,18.03
2019-04-04T08:04:07.439Z,19.53
2019-04-04T08:09:09.352Z,18.70
2019-04-04T08:14:11.290Z,19.50
2019-04-04T08:19:13.115Z,23.77
2019-04-04T08:24:15.144Z,24.00
2019-04-04T08:29:18.284Z,20.30
2019-04-04T08:34:20.121Z,24.03
2019-04-04T08:39:21.938Z,32.47
2019-04-04T08:44:24.808Z,28.07
2019-04-04T08:49:26.629Z,30.20
2019-04-04T08:54:28.436Z,31.17
2019-04-04T08:59:30.357Z,26.87
2019-04-04T09:04:32.426Z,27.93
2019-04-04T09:09:34.775Z,28.37
2019-04-04T09:14:36.890Z,31.80
2019-04-04T09:19:38.922Z,29.33
2019-04-04T09:24:40.747Z,27.77
2019-04-04T09:29:42.570Z,29.23
2019-04-04T09:34:44.541Z,26.87
2019-04-04T09:39:47.368Z,28.80
2019-04-04T09:44:50.384Z,28.40
2019-04-04T09:49:52.197Z,29.13
2019-04-04T09:54:54.053Z,28.80
2019-04-04T09:59:57.063Z,28.83
2019-04-04T10:04:59.301Z,27.97
2019-04-04T10:10:02.208Z,25.53
2019-04-04T10:15:06.052Z,26.83
2019-04-04T10:20:09.176Z,24.87
2019-04-04T10:25:11.395Z,25.40
2019-04-04T10:30:13.737Z,25.20
2019-04-04T10:35:15.605Z,25.53
2019-04-04T10:40:17.740Z,25.10
2019-04-04T10:45:19.605Z,27.47
2019-04-04T10:50:21.515Z,26.90
2019-04-04T10:55:23.437Z,31.40
2019-04-04T11:00:25.681Z,34.03
2019-04-04T11:05:27.522Z,36.60
2019-04-04T11:10:29.354Z,39.10
2019-04-04T11:15:31.305Z,38.83
2019-04-04T11:20:33.124Z,38.63
2019-04-04T11:25:35.050Z,39.07
2019-04-04T11:30:36.991Z,33.53
2019-04-04T11:35:38.843Z,31.00
2019-04-04T11:40:40.662Z,28.43
2019-04-04T11:45:42.529Z,30.67
2019-04-04T11:50:44.445Z,26.13
2019-04-04T11:55:46.279Z,24.80
2019-04-04T12:00:49.559Z,24.20
2019-04-04T12:05:51.431Z,23.67
2019-04-04T12:10:53.258Z,24.87
2019-04-04T12:15:55.118Z,25.37
2019-04-04T12:20:57.180Z,29.10
2019-04-04T12:25:59.133Z,29.80
2019-04-04T12:31:01.073Z,27.43
2019-04-04T12:36:02.935Z,29.20
2019-04-04T12:41:04.787Z,27.07
2019-04-04T12:46:06.870Z,27.60
2019-04-04T12:51:08.903Z,27.20
2019-04-04T12:56:10.755Z,28.60
2019-04-04T13:01:12.623Z,29.07
2019-04-04T13:06:14.565Z,29.03
2019-04-04T13:11:16.601Z,29.87
2019-04-04T13:16:18.472Z,30.17
2019-04-04T13:21:21.678Z,30.97
2019-04-04T13:26:23.619Z,30.73
2019-04-04T13:31:25.456Z,32.57
2019-04-04T13:36:27.683Z,66.70
2019-04-04T13:41:29.490Z,29.83
2019-04-04T13:46:31.510Z,29.93
2019-04-04T13:51:34.376Z,29.77
2019-04-04T13:56:36.210Z,31.13
2019-04-04T14:01:38.042Z,31.50
2019-04-04T14:06:39.954Z,32.20
2019-04-04T14:11:42.181Z,30.70
2019-04-04T14:16:44.134Z,31.70
2019-04-04T14:21:46.046Z,33.57
2019-04-04T14:26:47.871Z,32.40
2019-04-04T14:31:49.707Z,30.97
2019-04-04T14:36:51.602Z,31.53
2019-04-04T14:41:53.401Z,32.67
2019-04-04T14:46:56.259Z,31.47
2019-04-04T14:51:58.114Z,32.80
2019-04-04T14:57:00.060Z,33.87
2019-04-04T15:02:02.007Z,33.67
2019-04-04T15:07:03.953Z,34.43
2019-04-04T15:12:05.762Z,33.83
2019-04-04T15:17:07.588Z,37.17
2019-04-04T15:22:10.418Z,38.00
2019-04-04T15:27:12.350Z,37.13
2019-04-04T15:32:14.278Z,34.80
2019-04-04T15:37:16.120Z,38.07
2019-04-04T15:42:17.984Z,37.43
2019-04-04T15:47:19.820Z,37.67
2019-04-04T15:52:21.692Z,37.70
2019-04-04T15:57:23.550Z,38.00
2019-04-04T16:02:25.368Z,39.33
2019-04-04T16:07:28.014Z,39.73
2019-04-04T16:12:31.155Z,37.47
2019-04-04T16:17:32.991Z,39.07
2019-04-04T16:22:35.640Z,39.27
2019-04-04T16:27:38.581Z,37.87
2019-04-04T16:32:40.618Z,39.60
2019-04-04T16:37:42.611Z,38.80
2019-04-04T16:42:44.700Z,43.37
2019-04-04T16:47:46.625Z,40.97
2019-04-04T16:52:48.919Z,46.17
2019-04-04T16:57:50.943Z,40.37
2019-04-04T17:02:54.027Z,38.50
2019-04-04T17:07:55.887Z,39.80
2019-04-04T17:12:57.721Z,39.97
2019-04-04T17:18:00.040Z,38.40
2019-04-04T17:23:01.983Z,41.63
2019-04-04T17:28:04.498Z,42.07
2019-04-04T17:33:06.981Z,40.67
2019-04-04T17:38:08.903Z,38.53
2019-04-04T17:43:10.710Z,39.17
2019-04-04T17:48:12.857Z,39.27
2019-04-04T17:53:14.903Z,36.70
2019-04-04T17:58:18.390Z,38.63
2019-04-04T18:03:20.389Z,38.63
2019-04-04T18:08:22.224Z,40.17
2019-04-04T18:13:24.153Z,38.60
2019-04-04T18:18:26.091Z,37.73
2019-04-04T18:23:27.998Z,37.33
2019-04-04T18:28:29.844Z,36.63
2019-04-04T18:33:31.657Z,37.73
2019-04-04T18:38:33.605Z,37.13
2019-04-04T18:43:35.423Z,38.07
2019-04-04T18:48:37.347Z,33.63
2019-04-04T18:53:39.173Z,35.07
2019-04-04T18:58:41.139Z,37.60
2019-04-04T19:03:42.988Z,36.23
2019-04-04T19:08:44.841Z,35.87
2019-04-04T19:13:47.532Z,34.83
2019-04-04T19:18:49.371Z,35.47
2019-04-04T19:23:51.783Z,29.27
2019-04-04T19:28:53.755Z,34.43
2019-04-04T19:33:55.575Z,36.43
2019-04-04T19:38:57.450Z,38.40
2019-04-04T19:43:59.260Z,42.53
2019-04-04T19:49:01.120Z,40.40
2019-04-04T19:54:03.271Z,36.60
2019-04-04T19:59:06.157Z,36.67
2019-04-04T20:04:07.987Z,43.17
2019-04-04T20:09:09.910Z,42.73
2019-04-04T20:14:11.718Z,44.70
2019-04-04T20:19:13.533Z,46.23
2019-04-04T20:24:15.477Z,43.63
2019-04-04T20:29:17.429Z,42.87
2019-04-04T20:34:19.240Z,46.40
2019-04-04T20:39:21.079Z,49.47
2019-04-04T20:44:22.998Z,42.87
2019-04-04T20:49:24.824Z,50.03
2019-04-04T20:54:26.704Z,49.67
2019-04-04T20:59:28.535Z,51.03
2019-04-04T21:04:30.357Z,39.63
2019-04-04T21:09:32.189Z,53.10
2019-04-04T21:14:34.001Z,50.90
2019-04-04T21:19:35.857Z,53.47
2019-04-04T21:24:37.783Z,51.67
2019-04-04T21:29:40.886Z,53.03
2019-04-04T21:34:43.397Z,52.40
2019-04-04T21:39:45.250Z,52.33
2019-04-04T21:44:47.080Z,54.60
2019-04-04T21:49:49.009Z,53.77
2019-04-04T21:54:50.954Z,54.20
2019-04-04T21:59:53.059Z,55.63
2019-04-04T22:04:54.869Z,56.63
2019-04-04T22:09:56.689Z,56.03
2019-04-04T22:14:58.517Z,53.43
2019-04-04T22:20:00.561Z,54.37
2019-04-04T22:25:02.606Z,57.17
2019-04-04T22:30:05.224Z,60.67
2019-04-04T22:35:07.255Z,57.73
2019-04-04T22:40:09.508Z,57.10
2019-04-04T22:45:11.817Z,57.70
2019-04-04T22:50:13.984Z,55.53
2019-04-04T22:55:15.898Z,55.13
2019-04-04T23:00:18.035Z,56.10
2019-04-04T23:05:19.895Z,54.73
2019-04-04T23:10:21.753Z,56.23
2019-04-04T23:15:23.584Z,56.37
2019-04-04T23:20:25.464Z,57.60
2019-04-04T23:25:27.309Z,60.00
2019-04-04T23:30:29.130Z,58.23
2019-04-04T23:35:31.254Z,58.93
2019-04-04T23:40:33.489Z,57.07
2019-04-04T23:45:35.396Z,53.37
2019-04-04T23:50:37.263Z,52.13
2019-04-04T23:55:39.125Z,50.63
